Lansing, MI

12:20 PM EST on December 07, 2016 (GMT -0500)
Capital City | | Change Station

Elev 873 ft 42.78 °N, 84.58 °W | Updated 27 minutes ago

Partly Cloudy
Partly Cloudy
36 °F
Feels Like 25 °F
N
21
Wind Variable Wind from West

Today
High -- | Low -- °F
--% Chance of Precip.
Yesterday
High -- | Low -- °F
Precip. -- in
Pressure 30.02 in
Visibility 10.0 miles
Clouds Few 2700 ft
Windchill 25 °F
Dew Point 22 °F
Humidity 57%
Rainfall 0.00 in
Snow Depth Not available.
7:55 AM 5:04 PM
First Quarter, 54% visible
METAR KLAN 071653Z 26018KT 10SM FEW027 02/M06 A2999 RMK AO2 SLP164 T00221056
Pressure 30.02 in
Visibility 10.0 miles
Clouds Few 2700 ft
Windchill 25 °F
Dew Point 22 °F
Humidity 57%
Rainfall 0.00 in
Snow Depth Not available.
7:55 AM 5:04 PM
First Quarter, 54% visible
METAR KLAN 071653Z 26018KT 10SM FEW027 02/M06 A2999 RMK AO2 SLP164 T00221056

10-Day Weather Forecast

Almanac

Astronomy

Dec. 07, 2016 Rise Set
Actual Time
Civil Twilight
Nautical Twilight
Astronomical Twilight
Moon
Length of Visible Light
Length of Day
Tomorrow will be .
, % of the Moon is Illuminated

Today's Extremes

State Highs State Lows

Community

WunderPhotos

Upload Photos

1,956,151 photos uploaded!

WunderBlog® & News

Nearby

Air Quality

  Air Quality AQ Index Pollutant
Not available.

Snow Depth

Station Depth Elevation

Earthquake Activity

City Distance Mag. Time & Date
Minimum magnitude displayed is 2.5.

Coastal Water Temperatures

Place Temperature

Stations

Nearby Weather Stations

Station Location Temp. Windchill Dew Point Humidity Wind Precip. Elev Updated Type
                   

Watches & Warnings

There are currently no watches in effect.